Time;durP1;ratioP1;P1;durP2;ratioP2;P2;SDS_P1;SDS_P2;PMS_P1;PMS_P2;Temp;Humidity;BMP_temperature;BMP_pressure;BME280_temperature;BME280_humidity;BME280_pressure;Samples;Min_cycle;Max_cycle;Signal;HPM_P1;HPM_P2
2022/10/08 00:00:00;;;;;;;20.47;8.97;;;13.60;99.90;;;;;;5072248;28;20438;-65
2022/10/08 00:02:28;;;;;;;18.33;9.00;;;13.60;99.90;;;;;;5071956;28;20185;-64
2022/10/08 00:04:54;;;;;;;19.33;8.07;;;13.60;99.90;;;;;;5072438;28;20181;-65
2022/10/08 00:07:19;;;;;;;18.67;8.83;;;13.50;99.90;;;;;;5072015;28;20408;-65
2022/10/08 00:09:45;;;;;;;12.63;7.80;;;13.50;99.90;;;;;;5072627;28;20173;-65
2022/10/08 00:12:10;;;;;;;13.50;6.90;;;13.50;99.90;;;;;;5071954;28;20174;-64
2022/10/08 00:14:37;;;;;;;22.13;7.67;;;13.40;99.90;;;;;;5072005;28;20173;-65
2022/10/08 00:17:03;;;;;;;14.13;7.13;;;13.40;99.90;;;;;;5072200;28;20180;-65
2022/10/08 00:19:28;;;;;;;14.40;7.70;;;13.40;99.90;;;;;;5071949;28;20416;-64
2022/10/08 00:21:55;;;;;;;17.83;7.50;;;13.40;99.90;;;;;;5071240;28;20220;-65
2022/10/08 00:24:22;;;;;;;12.97;7.57;;;13.40;99.90;;;;;;5071456;28;20173;-65
2022/10/08 00:26:49;;;;;;;17.00;7.10;;;13.40;99.90;;;;;;5071252;28;20416;-65
2022/10/08 00:29:17;;;;;;;15.27;6.43;;;13.30;99.90;;;;;;5071202;28;20422;-65
2022/10/08 00:31:44;;;;;;;12.67;7.70;;;13.40;99.90;;;;;;5070776;28;20430;-65
2022/10/08 00:34:17;;;;;;;13.13;6.63;;;13.30;99.90;;;;;;5071056;28;20411;-65
2022/10/08 00:36:43;;;;;;;13.80;7.83;;;13.40;99.90;;;;;;5063185;28;20986;-65
2022/10/08 00:39:17;;;;;;;11.53;6.60;;;13.40;99.90;;;;;;5071133;28;20450;-65
2022/10/08 00:41:47;;;;;;;14.67;7.27;;;13.30;99.90;;;;;;5070730;28;20451;-65
2022/10/08 00:44:51;;;;;;;13.40;8.07;;;13.30;99.90;;;;;;5070443;28;20956;-65
2022/10/08 00:47:24;;;;;;;15.07;8.00;;;13.30;99.90;;;;;;5071200;28;20411;-65
2022/10/08 00:49:54;;;;;;;18.43;7.90;;;13.40;99.90;;;;;;5070843;28;20418;-65
2022/10/08 00:52:21;;;;;;;16.57;7.63;;;13.30;99.90;;;;;;5070541;28;20431;-65
2022/10/08 00:54:50;;;;;;;10.80;6.90;;;13.40;99.90;;;;;;5071179;28;20408;-65
2022/10/08 00:57:17;;;;;;;15.47;6.83;;;13.30;99.90;;;;;;5070918;28;20473;-65
2022/10/08 00:59:43;;;;;;;13.97;7.47;;;13.30;99.90;;;;;;5070414;28;20924;-65
2022/10/08 01:02:09;;;;;;;13.77;7.30;;;13.30;99.90;;;;;;5070308;28;20482;-65
2022/10/08 01:04:36;;;;;;;15.73;7.30;;;13.30;99.90;;;;;;5070556;28;20250;-65
2022/10/08 01:07:11;;;;;;;14.80;7.93;;;13.30;99.90;;;;;;5070563;28;20756;-65
2022/10/08 01:09:52;;;;;;;11.10;6.73;;;13.30;99.90;;;;;;5070920;28;20441;-65
2022/10/08 01:12:27;;;;;;;16.83;7.93;;;13.40;99.90;;;;;;5069728;28;20419;-65
2022/10/08 01:15:10;;;;;;;15.03;8.77;;;13.40;99.90;;;;;;5070257;28;20482;-65
2022/10/08 01:17:39;;;;;;;15.70;8.63;;;13.40;99.90;;;;;;5070524;28;20451;-65
2022/10/08 01:20:17;;;;;;;15.73;7.90;;;13.40;99.90;;;;;;5033409;28;1155207;-65
2022/10/08 01:22:57;;;;;;;11.70;6.97;;;13.40;99.90;;;;;;5075404;28;20490;-65
2022/10/08 01:25:38;;;;;;;20.17;8.20;;;13.40;99.90;;;;;;5062545;28;20414;-65
2022/10/08 01:28:27;;;;;;;13.80;6.83;;;13.40;99.90;;;;;;5075473;28;20415;-65
2022/10/08 01:31:11;;;;;;;17.07;7.17;;;13.40;99.90;;;;;;5075872;28;20451;-65
2022/10/08 01:33:38;;;;;;;11.50;7.03;;;13.40;99.90;;;;;;5062613;28;20418;-65
2022/10/08 01:36:06;;;;;;;19.47;9.03;;;13.40;99.90;;;;;;5075317;28;20426;-65
2022/10/08 01:38:37;;;;;;;17.20;7.90;;;13.50;99.90;;;;;;5075381;28;20459;-65
2022/10/08 01:41:08;;;;;;;15.27;8.00;;;13.40;99.90;;;;;;5075460;28;20549;-65
2022/10/08 01:43:39;;;;;;;15.50;7.83;;;13.50;99.90;;;;;;5073498;28;20411;-65
2022/10/08 01:46:19;;;;;;;14.27;7.50;;;13.50;99.90;;;;;;5075254;28;20783;-65
2022/10/08 01:48:48;;;;;;;17.03;7.20;;;13.50;99.90;;;;;;5074866;28;20418;-65
2022/10/08 01:51:22;;;;;;;9.33;6.43;;;13.50;99.90;;;;;;5075330;28;20422;-65
2022/10/08 01:53:50;;;;;;;14.07;7.00;;;13.40;99.90;;;;;;5074902;28;20419;-65
2022/10/08 01:56:20;;;;;;;49.40;7.30;;;13.40;99.90;;;;;;5075214;28;20456;-65
2022/10/08 01:58:50;;;;;;;19.90;7.03;;;13.40;99.90;;;;;;5074359;28;20925;-65
2022/10/08 02:01:57;;;;;;;11.77;6.47;;;13.50;99.90;;;;;;5075098;28;20513;-65
2022/10/08 02:04:32;;;;;;;20.43;6.93;;;13.50;99.90;;;;;;5039771;28;20415;-65
2022/10/08 02:07:02;;;;;;;14.47;6.23;;;13.40;99.90;;;;;;5074807;28;20427;-65
2022/10/08 02:09:30;;;;;;;12.67;5.87;;;13.40;99.90;;;;;;5075205;28;20411;-65
2022/10/08 02:11:56;;;;;;;21.63;7.10;;;13.40;99.90;;;;;;5078747;28;21194;-64
2022/10/08 02:14:24;;;;;;;12.97;6.80;;;13.40;99.90;;;;;;5094313;28;20427;-64
2022/10/08 02:17:09;;;;;;;13.03;6.27;;;13.40;99.90;;;;;;5094962;28;20563;-64
2022/10/08 02:19:47;;;;;;;30.20;6.33;;;13.40;99.90;;;;;;5086617;28;20411;-65
2022/10/08 02:22:16;;;;;;;12.03;6.30;;;13.40;99.90;;;;;;5081429;28;20499;-65
2022/10/08 02:24:49;;;;;;;14.37;6.30;;;13.40;99.90;;;;;;5094902;28;20463;-65
2022/10/08 02:27:17;;;;;;;12.70;5.33;;;13.40;99.90;;;;;;5094937;28;20430;-65
2022/10/08 02:29:56;;;;;;;23.40;6.57;;;13.40;99.90;;;;;;5091858;28;20414;-65
2022/10/08 02:32:35;;;;;;;14.90;7.20;;;13.40;99.90;;;;;;5074358;28;20779;-65
2022/10/08 02:35:26;;;;;;;9.57;5.67;;;13.40;99.90;;;;;;5079894;28;20451;-65
2022/10/08 02:38:19;;;;;;;13.00;5.83;;;13.40;99.90;;;;;;5090628;28;20431;-65
2022/10/08 02:40:49;;;;;;;17.47;6.43;;;13.50;99.90;;;;;;5073951;28;20472;-65
2022/10/08 02:43:23;;;;;;;10.70;6.17;;;13.40;99.90;;;;;;5093567;28;20422;-65
2022/10/08 02:46:11;;;;;;;11.37;6.30;;;13.40;99.90;;;;;;5080709;28;20403;-65
2022/10/08 02:48:41;;;;;;;20.23;6.80;;;13.30;99.90;;;;;;5079675;28;20415;-65
2022/10/08 02:51:12;;;;;;;20.80;6.60;;;13.30;99.90;;;;;;5079093;28;20431;-65
2022/10/08 02:53:39;;;;;;;19.07;6.37;;;13.30;99.90;;;;;;5086701;28;20426;-65
2022/10/08 02:56:13;;;;;;;12.43;5.73;;;13.20;99.90;;;;;;5087891;28;20621;-65
2022/10/08 02:58:41;;;;;;;14.37;5.97;;;13.20;99.90;;;;;;5077947;28;21002;-65
2022/10/08 03:01:12;;;;;;;9.70;4.87;;;13.20;99.90;;;;;;5085975;28;20458;-65
2022/10/08 03:03:44;;;;;;;17.27;6.00;;;13.20;99.90;;;;;;5088789;28;20422;-66
2022/10/08 03:06:13;;;;;;;9.47;5.50;;;13.20;99.90;;;;;;5084687;28;20422;-66
2022/10/08 03:08:43;;;;;;;12.83;5.70;;;13.20;99.90;;;;;;5076641;28;20411;-66
2022/10/08 03:11:10;;;;;;;14.17;5.53;;;13.20;99.90;;;;;;5094070;28;20442;-66
2022/10/08 03:13:39;;;;;;;9.50;5.87;;;13.30;99.90;;;;;;5093031;28;20419;-66
2022/10/08 03:16:07;;;;;;;19.67;5.43;;;13.20;99.90;;;;;;5093724;28;20983;-66
2022/10/08 03:18:35;;;;;;;11.93;6.00;;;13.20;99.90;;;;;;5093349;28;20922;-66
2022/10/08 03:21:02;;;;;;;19.57;5.60;;;13.20;99.90;;;;;;5082268;28;20489;-63
2022/10/08 03:23:28;;;;;;;10.37;5.83;;;13.10;99.90;;;;;;5077416;28;20414;-64
2022/10/08 03:25:53;;;;;;;9.13;5.33;;;13.10;99.90;;;;;;5093986;28;20421;-64
2022/10/08 03:28:19;;;;;;;9.57;5.63;;;13.10;99.90;;;;;;5093148;28;20181;-64
2022/10/08 03:30:46;;;;;;;8.97;4.50;;;13.10;99.90;;;;;;5093718;28;20236;-64
2022/10/08 03:33:11;;;;;;;11.27;6.30;;;13.10;99.90;;;;;;5092743;28;20200;-64
2022/10/08 03:35:44;;;;;;;16.77;5.80;;;13.10;99.90;;;;;;5093506;28;20912;-64
2022/10/08 03:38:09;;;;;;;13.37;6.27;;;13.00;99.90;;;;;;5073947;28;20268;-64
2022/10/08 03:40:35;;;;;;;10.50;5.63;;;13.00;99.90;;;;;;5071941;28;21056;-64
2022/10/08 03:43:01;;;;;;;16.10;5.40;;;13.00;99.90;;;;;;5071338;28;20185;-64
2022/10/08 03:45:26;;;;;;;11.23;5.20;;;13.00;99.90;;;;;;5054510;28;20199;-64
2022/10/08 03:47:52;;;;;;;9.53;6.10;;;13.00;99.90;;;;;;5072069;28;20187;-64
2022/10/08 03:50:19;;;;;;;11.43;5.73;;;13.00;99.90;;;;;;5084549;28;20548;-64
2022/10/08 03:52:45;;;;;;;15.50;5.60;;;13.00;99.90;;;;;;5079242;28;20541;-64
2022/10/08 03:55:10;;;;;;;10.30;6.60;;;13.00;99.90;;;;;;5094214;28;20911;-64
2022/10/08 03:57:36;;;;;;;16.57;5.57;;;13.00;99.90;;;;;;5093574;28;20188;-64
2022/10/08 04:00:02;;;;;;;8.43;5.00;;;12.90;99.90;;;;;;5086937;28;20180;-64
2022/10/08 04:02:28;;;;;;;8.50;5.37;;;12.90;99.90;;;;;;5089061;28;20169;-64
2022/10/08 04:04:53;;;;;;;18.70;5.20;;;12.90;99.90;;;;;;5073525;28;20917;-63
2022/10/08 04:07:19;;;;;;;10.83;5.20;;;12.90;99.90;;;;;;5088059;28;20176;-64
2022/10/08 04:09:44;;;;;;;21.97;5.63;;;12.90;99.90;;;;;;5117431;28;20196;-64
2022/10/08 04:12:10;;;;;;;11.27;5.27;;;12.80;99.90;;;;;;5094398;28;20207;-64
2022/10/08 04:14:35;;;;;;;8.00;5.47;;;12.80;99.90;;;;;;5092294;28;20192;-64
2022/10/08 04:17:01;;;;;;;8.20;5.30;;;12.70;99.90;;;;;;5088088;28;20262;-64
2022/10/08 04:19:27;;;;;;;14.70;6.00;;;12.70;99.90;;;;;;5083020;28;20182;-64
2022/10/08 04:21:52;;;;;;;10.87;5.33;;;12.70;99.90;;;;;;5074099;28;20208;-63
2022/10/08 04:24:18;;;;;;;10.97;5.90;;;12.70;99.90;;;;;;5082932;28;20180;-64
2022/10/08 04:26:43;;;;;;;11.00;6.40;;;12.60;99.90;;;;;;5088665;28;20184;-64
2022/10/08 04:29:11;;;;;;;24.33;6.87;;;12.60;99.90;;;;;;5082467;28;20259;-64
2022/10/08 04:31:37;;;;;;;15.30;5.43;;;12.60;99.90;;;;;;5087877;28;20268;-64
2022/10/08 04:34:02;;;;;;;21.03;6.93;;;12.60;99.90;;;;;;5082665;28;20963;-64
2022/10/08 04:36:28;;;;;;;16.23;6.37;;;12.50;99.90;;;;;;5090737;28;20769;-64
2022/10/08 04:38:54;;;;;;;17.73;6.73;;;12.50;99.90;;;;;;5086362;28;20187;-64
2022/10/08 04:41:22;;;;;;;10.57;5.90;;;12.50;99.90;;;;;;5092068;28;20261;-64
2022/10/08 04:43:48;;;;;;;10.13;5.50;;;12.30;99.90;;;;;;5090725;28;20172;-64
2022/10/08 04:46:16;;;;;;;9.30;5.33;;;12.30;99.90;;;;;;5092191;28;20445;-64
2022/10/08 04:48:46;;;;;;;11.03;5.70;;;12.30;99.90;;;;;;5079258;28;20192;-64
2022/10/08 04:51:12;;;;;;;11.97;5.50;;;12.20;99.90;;;;;;5091663;28;20438;-64
2022/10/08 04:53:38;;;;;;;19.37;7.10;;;12.20;99.90;;;;;;5078557;28;20817;-64
2022/10/08 04:56:09;;;;;;;10.53;6.63;;;12.20;99.90;;;;;;5091402;28;20188;-64
2022/10/08 04:58:35;;;;;;;13.90;6.00;;;12.20;99.90;;;;;;5090944;28;20211;-64
2022/10/08 05:01:04;;;;;;;10.77;6.13;;;12.20;99.90;;;;;;5078683;28;20496;-64
2022/10/08 05:03:30;;;;;;;14.87;6.87;;;12.30;99.90;;;;;;5090583;28;20590;-64
2022/10/08 05:05:56;;;;;;;14.33;6.50;;;12.30;99.90;;;;;;5071880;28;20412;-64
2022/10/08 05:08:21;;;;;;;10.30;4.80;;;12.30;99.90;;;;;;5085463;28;20180;-64
2022/10/08 05:10:48;;;;;;;13.40;5.80;;;12.30;99.90;;;;;;5091717;28;20180;-64
2022/10/08 05:13:13;;;;;;;27.43;5.90;;;12.30;99.90;;;;;;5091024;28;20190;-64
2022/10/08 05:15:39;;;;;;;8.70;5.17;;;12.30;99.90;;;;;;5091590;28;20505;-64
2022/10/08 05:18:05;;;;;;;7.93;5.40;;;12.30;99.90;;;;;;5078262;28;20219;-63
2022/10/08 05:20:30;;;;;;;12.70;5.80;;;12.30;99.90;;;;;;5091184;28;20208;-64
2022/10/08 05:22:56;;;;;;;7.83;4.70;;;12.30;99.90;;;;;;5091479;28;20188;-64
2022/10/08 05:25:21;;;;;;;12.33;5.40;;;12.30;99.90;;;;;;5078290;28;20188;-64
2022/10/08 05:27:47;;;;;;;6.93;4.57;;;12.40;99.90;;;;;;5091446;28;20218;-64
2022/10/08 05:30:12;;;;;;;12.00;5.20;;;12.30;99.90;;;;;;5091427;28;20653;-64
2022/10/08 05:32:38;;;;;;;15.30;4.93;;;12.30;99.90;;;;;;5091141;28;20233;-64
2022/10/08 05:35:04;;;;;;;10.23;4.37;;;12.30;99.90;;;;;;5091430;28;20188;-64
2022/10/08 05:37:30;;;;;;;11.40;5.17;;;12.30;99.90;;;;;;5091591;28;20180;-64
2022/10/08 05:39:55;;;;;;;9.47;5.27;;;12.30;99.90;;;;;;5078305;28;20210;-64
2022/10/08 05:42:21;;;;;;;11.83;5.87;;;12.20;99.90;;;;;;5090590;28;20211;-64
2022/10/08 05:44:46;;;;;;;11.90;6.03;;;12.20;99.90;;;;;;5084677;28;20188;-64
2022/10/08 05:47:12;;;;;;;9.13;5.57;;;12.20;99.90;;;;;;5081979;28;20187;-64
2022/10/08 05:49:37;;;;;;;11.00;5.67;;;12.10;99.90;;;;;;5077296;28;20226;-64
2022/10/08 05:52:03;;;;;;;9.73;5.17;;;12.10;99.90;;;;;;5091347;28;20176;-64
2022/10/08 05:54:28;;;;;;;15.20;5.30;;;12.00;99.90;;;;;;5091232;28;20763;-64
2022/10/08 05:56:54;;;;;;;10.40;4.40;;;12.00;99.90;;;;;;5078535;28;20180;-64
2022/10/08 05:59:23;;;;;;;10.43;4.90;;;12.00;99.90;;;;;;5076607;28;20177;-64
2022/10/08 06:01:50;;;;;;;8.33;5.20;;;12.00;99.90;;;;;;5090319;28;20204;-64
2022/10/08 06:04:17;;;;;;;10.33;6.00;;;11.90;99.90;;;;;;5073018;28;20514;-64
2022/10/08 06:06:43;;;;;;;9.60;5.43;;;11.90;99.90;;;;;;5074847;28;20437;-64
2022/10/08 06:09:14;;;;;;;20.40;5.93;;;11.90;99.90;;;;;;5094018;28;20449;-64
2022/10/08 06:11:41;;;;;;;18.37;5.20;;;11.90;99.90;;;;;;5094638;28;20426;-64
2022/10/08 06:14:10;;;;;;;9.50;6.13;;;11.80;99.90;;;;;;5088090;28;20476;-64
2022/10/08 06:16:35;;;;;;;12.43;5.50;;;11.80;99.90;;;;;;5088301;28;20495;-64
2022/10/08 06:19:02;;;;;;;9.53;5.33;;;11.80;99.90;;;;;;5094204;28;20422;-64
2022/10/08 06:21:28;;;;;;;10.23;5.10;;;11.80;99.90;;;;;;5080236;28;20213;-64
2022/10/08 06:23:59;;;;;;;16.47;6.00;;;11.80;99.90;;;;;;5074441;28;20418;-64
2022/10/08 06:26:29;;;;;;;7.13;4.87;;;11.80;99.90;;;;;;5088764;28;20438;-64
2022/10/08 06:28:55;;;;;;;12.53;5.60;;;11.80;99.90;;;;;;5094318;28;20437;-64
2022/10/08 06:31:21;;;;;;;18.43;6.67;;;11.90;99.90;;;;;;5076476;28;20805;-64
2022/10/08 06:33:47;;;;;;;16.40;6.70;;;11.90;99.90;;;;;;5093872;28;20414;-64
2022/10/08 06:36:12;;;;;;;9.97;5.33;;;11.90;99.90;;;;;;5094279;28;20176;-64
2022/10/08 06:38:38;;;;;;;8.97;5.23;;;11.90;99.90;;;;;;5074126;28;20954;-64
2022/10/08 06:41:04;;;;;;;10.47;6.47;;;12.00;99.90;;;;;;5094636;28;20208;-64
2022/10/08 06:43:29;;;;;;;10.83;6.43;;;12.00;99.90;;;;;;5092502;28;20188;-64
2022/10/08 06:45:58;;;;;;;12.93;5.57;;;12.10;99.90;;;;;;5093869;28;20227;-64
2022/10/08 06:48:25;;;;;;;6.90;4.27;;;12.10;99.90;;;;;;5091254;28;20197;-64
2022/10/08 06:51:11;;;;;;;10.00;5.30;;;12.20;99.90;;;;;;5093550;28;20489;-64
2022/10/08 06:53:37;;;;;;;15.50;6.20;;;12.30;99.90;;;;;;5071816;28;20422;-64
2022/10/08 06:56:06;;;;;;;19.60;4.90;;;12.40;99.90;;;;;;5091462;28;20916;-64
2022/10/08 06:58:34;;;;;;;8.17;4.43;;;12.50;99.90;;;;;;5093200;28;20415;-64
2022/10/08 07:01:01;;;;;;;7.00;4.40;;;12.60;99.90;;;;;;5094130;28;20466;-64
2022/10/08 07:03:27;;;;;;;9.20;5.13;;;12.70;99.90;;;;;;5084810;28;20909;-64
2022/10/08 07:05:52;;;;;;;9.80;5.47;;;12.80;99.90;;;;;;5075276;28;20477;-64
2022/10/08 07:08:18;;;;;;;11.10;4.73;;;12.90;99.90;;;;;;5093818;28;20181;-64
2022/10/08 07:10:44;;;;;;;8.60;4.67;;;13.00;99.90;;;;;;5086871;28;20602;-64
2022/10/08 07:13:09;;;;;;;9.43;4.47;;;13.00;99.90;;;;;;5092664;28;20184;-64
2022/10/08 07:15:35;;;;;;;7.33;4.73;;;13.10;99.90;;;;;;5090794;28;20190;-64
2022/10/08 07:18:00;;;;;;;9.60;4.70;;;13.20;99.90;;;;;;5092048;28;20249;-64
2022/10/08 07:20:26;;;;;;;9.50;4.80;;;13.20;99.90;;;;;;5092292;28;20292;-64
2022/10/08 07:22:51;;;;;;;9.90;5.07;;;13.30;99.90;;;;;;5074487;28;20650;-64
2022/10/08 07:25:17;;;;;;;12.43;4.70;;;13.40;99.90;;;;;;5093369;28;20222;-64
2022/10/08 07:27:42;;;;;;;12.53;4.03;;;13.50;99.90;;;;;;5092512;28;20656;-64
2022/10/08 07:30:09;;;;;;;4.53;3.47;;;13.70;99.90;;;;;;5092636;28;20177;-64
2022/10/08 07:32:34;;;;;;;6.70;3.47;;;13.80;99.90;;;;;;5092302;28;20669;-64
2022/10/08 07:35:00;;;;;;;20.00;3.37;;;14.00;99.90;;;;;;5090862;28;20446;-64
2022/10/08 07:37:25;;;;;;;15.13;3.57;;;14.10;99.90;;;;;;5091602;28;20172;-64
2022/10/08 07:39:51;;;;;;;3.93;2.93;;;14.10;99.90;;;;;;5092553;28;20180;-64
2022/10/08 07:42:17;;;;;;;6.93;2.80;;;14.20;99.90;;;;;;5088873;28;20211;-64
2022/10/08 07:44:42;;;;;;;9.80;2.83;;;14.20;99.90;;;;;;5091177;28;20176;-64
2022/10/08 07:47:08;;;;;;;7.93;2.53;;;14.40;99.90;;;;;;5091545;28;20173;-64
2022/10/08 07:49:34;;;;;;;9.37;2.83;;;14.70;99.90;;;;;;5076764;28;20545;-64
2022/10/08 07:52:00;;;;;;;5.83;2.87;;;15.10;99.90;;;;;;5070813;28;20431;-64
2022/10/08 07:54:25;;;;;;;5.07;2.27;;;15.60;99.90;;;;;;5085366;28;20195;-64
2022/10/08 07:56:51;;;;;;;7.80;2.37;;;15.90;99.90;;;;;;5093246;28;20184;-64
2022/10/08 07:59:16;;;;;;;5.30;2.40;;;16.30;99.90;;;;;;5092202;28;20696;-64
2022/10/08 08:01:43;;;;;;;5.47;1.80;;;16.50;99.90;;;;;;5085022;28;20208;-64
2022/10/08 08:04:09;;;;;;;7.70;1.77;;;16.60;99.90;;;;;;5086508;28;20172;-64
2022/10/08 08:06:46;;;;;;;8.37;2.13;;;16.50;99.90;;;;;;5084972;28;20420;-64
2022/10/08 08:09:13;;;;;;;8.90;1.73;;;16.60;99.90;;;;;;5072242;28;20427;-65
2022/10/08 08:11:39;;;;;;;2.73;1.33;;;17.10;99.90;;;;;;5072177;28;20419;-64
2022/10/08 08:14:05;;;;;;;6.30;1.80;;;17.10;99.90;;;;;;5087534;28;20422;-64
2022/10/08 08:16:30;;;;;;;4.03;1.70;;;16.70;99.90;;;;;;5083424;28;20296;-64
2022/10/08 08:18:58;;;;;;;7.40;2.40;;;16.70;99.90;;;;;;5088788;28;20446;-64
2022/10/08 08:21:26;;;;;;;7.90;2.10;;;16.90;99.90;;;;;;5082622;28;20228;-64
2022/10/08 08:23:54;;;;;;;11.60;3.07;;;17.00;99.90;;;;;;5074870;28;20423;-64
2022/10/08 08:26:22;;;;;;;4.03;1.67;;;17.00;99.90;;;;;;5092105;28;20414;-64
2022/10/08 08:28:52;;;;;;;5.47;1.90;;;16.80;99.90;;;;;;5091685;28;20445;-64
2022/10/08 08:31:24;;;;;;;6.70;1.87;;;16.80;99.90;;;;;;5090507;28;20454;-64
2022/10/08 08:33:52;;;;;;;7.40;2.30;;;16.70;99.90;;;;;;5090489;28;20831;-64
2022/10/08 08:36:22;;;;;;;6.30;1.70;;;16.50;99.90;;;;;;5090853;28;20879;-64
2022/10/08 08:38:47;;;;;;;5.10;2.07;;;16.60;99.90;;;;;;5090595;28;20418;-64
2022/10/08 08:41:52;;;;;;;6.13;2.40;;;16.80;99.90;;;;;;5090642;28;20454;-64
2022/10/08 08:44:39;;;;;;;4.30;1.97;;;16.70;99.90;;;;;;5088237;28;20927;-64
2022/10/08 08:47:07;;;;;;;4.77;1.83;;;16.70;99.90;;;;;;5089820;28;20898;-64
2022/10/08 08:49:41;;;;;;;23.23;1.87;;;16.80;99.90;;;;;;5090508;28;20414;-64
2022/10/08 08:52:10;;;;;;;12.53;1.90;;;16.90;99.90;;;;;;5090238;28;20452;-65
2022/10/08 08:54:36;;;;;;;9.13;2.10;;;17.20;99.90;;;;;;5088122;28;20418;-65
2022/10/08 08:57:31;;;;;;;2.63;1.00;;;17.40;99.90;;;;;;5091284;28;20426;-64
2022/10/08 09:00:04;;;;;;;8.67;2.27;;;17.50;99.30;;;;;;5089045;28;20184;-65
2022/10/08 09:02:39;;;;;;;4.07;1.53;;;17.60;98.90;;;;;;5090389;28;20435;-65
2022/10/08 09:05:11;;;;;;;14.20;3.10;;;17.40;99.00;;;;;;5072272;28;20444;-65
2022/10/08 09:07:52;;;;;;;3.27;1.50;;;17.20;98.60;;;;;;5086445;28;20407;-66
2022/10/08 09:10:23;;;;;;;4.73;1.17;;;17.20;98.50;;;;;;5084094;28;20460;-66
2022/10/08 09:12:51;;;;;;;7.57;1.33;;;17.10;98.50;;;;;;5090232;28;20442;-66
2022/10/08 09:15:18;;;;;;;8.27;1.10;;;16.90;98.80;;;;;;5087404;28;20758;-66
2022/10/08 09:17:48;;;;;;;2.57;1.40;;;17.00;98.20;;;;;;5088919;28;20419;-65
2022/10/08 09:20:20;;;;;;;2.50;1.17;;;16.90;98.40;;;;;;5087433;28;20430;-65
2022/10/08 09:22:47;;;;;;;23.73;3.67;;;16.80;98.10;;;;;;5091331;28;20446;-66
2022/10/08 09:25:20;;;;;;;5.30;1.40;;;16.80;97.90;;;;;;5091561;28;20426;-65
2022/10/08 09:27:49;;;;;;;7.90;1.33;;;16.70;98.30;;;;;;5091879;28;20425;-64
2022/10/08 09:30:23;;;;;;;2.57;1.30;;;16.60;98.20;;;;;;5091366;28;20474;-65
2022/10/08 09:32:51;;;;;;;4.13;1.33;;;16.40;97.80;;;;;;5081455;28;20423;-65
2022/10/08 09:35:17;;;;;;;3.00;1.00;;;16.20;99.40;;;;;;5088113;28;20442;-65
2022/10/08 09:37:47;;;;;;;5.93;1.63;;;16.30;99.00;;;;;;5091808;28;20913;-65
2022/10/08 09:40:24;;;;;;;14.60;1.40;;;16.40;98.70;;;;;;5094112;28;20418;-65
2022/10/08 09:43:09;;;;;;;2.97;1.13;;;16.50;98.50;;;;;;5082253;28;20431;-65
2022/10/08 09:45:48;;;;;;;11.23;1.60;;;16.40;99.20;;;;;;5082776;28;20428;-65
2022/10/08 09:48:25;;;;;;;1.60;0.90;;;16.40;98.80;;;;;;5092829;28;20979;-65
2022/10/08 09:51:13;;;;;;;7.97;1.37;;;16.40;98.90;;;;;;5076492;28;20451;-65
2022/10/08 09:53:40;;;;;;;2.97;1.00;;;16.40;98.70;;;;;;5081453;28;20422;-65
2022/10/08 09:56:08;;;;;;;8.50;1.17;;;16.40;99.10;;;;;;5092852;28;20469;-65
2022/10/08 09:58:47;;;;;;;6.73;1.50;;;16.50;98.80;;;;;;5094128;28;20421;-65
2022/10/08 10:01:15;;;;;;;2.07;1.13;;;16.60;98.00;;;;;;5078907;28;20886;-65
2022/10/08 10:03:49;;;;;;;3.30;1.20;;;16.60;97.30;;;;;;5074511;28;20411;-65
2022/10/08 10:06:14;;;;;;;11.23;1.93;;;16.50;98.00;;;;;;5074887;28;20500;-65
2022/10/08 10:08:40;;;;;;;7.27;1.80;;;16.40;98.00;;;;;;5088633;28;20772;-65
2022/10/08 10:11:07;;;;;;;5.40;1.10;;;16.40;98.30;;;;;;5091649;28;20391;-65
2022/10/08 10:13:36;;;;;;;5.47;1.47;;;16.40;98.80;;;;;;5092709;28;20176;-66
2022/10/08 10:16:10;;;;;;;9.97;1.47;;;16.60;97.80;;;;;;5093334;28;20418;-65
2022/10/08 10:18:53;;;;;;;5.60;1.73;;;16.60;97.20;;;;;;5093556;28;20924;-65
2022/10/08 10:21:32;;;;;;;8.13;1.73;;;16.50;97.60;;;;;;5090042;28;20892;-65
2022/10/08 10:24:10;;;;;;;2.20;1.20;;;16.60;97.00;;;;;;5090347;28;20895;-65
2022/10/08 10:26:39;;;;;;;3.43;1.03;;;16.60;97.10;;;;;;5091093;28;20406;-65
2022/10/08 10:29:08;;;;;;;6.13;1.70;;;16.70;97.00;;;;;;5092870;28;20415;-65
2022/10/08 10:32:01;;;;;;;7.93;1.63;;;16.80;97.20;;;;;;5092903;28;20448;-65
2022/10/08 10:34:30;;;;;;;2.63;1.40;;;17.00;97.30;;;;;;5090537;28;20923;-65
2022/10/08 10:37:03;;;;;;;1.87;1.03;;;16.90;97.50;;;;;;5090696;28;20442;-65
2022/10/08 10:39:37;;;;;;;6.07;1.67;;;17.00;97.30;;;;;;5093215;28;20446;-65
2022/10/08 10:42:05;;;;;;;2.53;1.33;;;17.00;96.30;;;;;;5085991;28;21003;-65
2022/10/08 10:44:46;;;;;;;3.13;1.50;;;16.70;96.40;;;;;;5086369;28;20808;-65
2022/10/08 10:47:12;;;;;;;2.87;1.30;;;16.70;96.20;;;;;;5092780;28;20460;-65
2022/10/08 10:49:41;;;;;;;11.57;1.87;;;16.80;97.40;;;;;;5080220;28;20419;-65
2022/10/08 10:52:44;;;;;;;5.10;1.33;;;17.20;96.60;;;;;;5074028;28;20207;-65
2022/10/08 10:55:39;;;;;;;4.90;1.33;;;17.20;96.90;;;;;;5074020;28;20434;-65
2022/10/08 10:58:34;;;;;;;3.33;1.70;;;17.00;96.10;;;;;;5091434;28;20476;-65
2022/10/08 11:01:21;;;;;;;2.60;1.07;;;16.80;97.00;;;;;;5045146;28;20477;-65
2022/10/08 11:04:11;;;;;;;3.53;1.33;;;16.90;95.90;;;;;;5084524;28;20931;-65
2022/10/08 11:06:54;;;;;;;8.80;1.67;;;17.10;95.90;;;;;;5081567;28;20411;-65
2022/10/08 11:09:46;;;;;;;8.10;1.27;;;17.30;95.40;;;;;;5093979;28;20495;-65
2022/10/08 11:12:37;;;;;;;3.20;1.40;;;17.70;93.40;;;;;;5088317;28;20483;-65
2022/10/08 11:15:24;;;;;;;5.93;2.37;;;17.50;94.80;;;;;;5090046;28;20434;-65
2022/10/08 11:18:02;;;;;;;6.27;1.27;;;17.60;94.10;;;;;;5092389;28;20422;-65
2022/10/08 11:20:30;;;;;;;4.03;1.70;;;17.30;95.00;;;;;;5090577;28;20425;-65
2022/10/08 11:23:24;;;;;;;5.93;2.00;;;17.20;94.90;;;;;;5089543;28;20407;-66
2022/10/08 11:26:12;;;;;;;4.90;1.50;;;17.30;93.80;;;;;;5091505;28;20410;-67
2022/10/08 11:28:50;;;;;;;3.73;1.33;;;17.10;94.00;;;;;;5090668;28;20410;-66
2022/10/08 11:31:44;;;;;;;4.67;2.20;;;17.30;93.50;;;;;;5091104;28;20430;-67
2022/10/08 11:34:29;;;;;;;4.90;1.70;;;17.50;94.50;;;;;;5080842;28;20425;-67
2022/10/08 11:37:05;;;;;;;5.93;1.13;;;17.50;93.90;;;;;;5088127;28;20478;-67
2022/10/08 11:39:31;;;;;;;3.73;1.20;;;17.40;93.00;;;;;;5073423;28;20411;-67
2022/10/08 11:42:06;;;;;;;5.77;1.67;;;17.10;93.30;;;;;;5089737;28;20794;-66
2022/10/08 11:44:32;;;;;;;10.90;1.53;;;17.00;93.40;;;;;;5075141;28;20581;-67
2022/10/08 11:47:39;;;;;;;6.00;1.60;;;17.00;94.00;;;;;;5093215;28;20415;-67
2022/10/08 11:50:40;;;;;;;14.37;1.47;;;17.30;93.50;;;;;;5090186;28;20469;-67
2022/10/08 11:53:14;;;;;;;3.03;1.33;;;17.60;92.00;;;;;;5087471;28;20780;-66
2022/10/08 11:55:55;;;;;;;3.83;1.07;;;17.70;91.80;;;;;;5093075;28;20419;-66
2022/10/08 11:58:32;;;;;;;7.67;1.50;;;17.30;92.30;;;;;;5087032;28;20920;-66
2022/10/08 12:01:06;;;;;;;2.60;1.23;;;17.00;93.50;;;;;;5072664;28;20806;-66
2022/10/08 12:03:36;;;;;;;3.77;1.70;;;17.00;92.90;;;;;;5080797;28;20445;-66
2022/10/08 12:06:26;;;;;;;7.93;1.37;;;17.00;92.60;;;;;;5090216;28;20501;-67
2022/10/08 12:09:03;;;;;;;2.90;1.63;;;17.00;93.00;;;;;;5072402;28;20450;-66
2022/10/08 12:11:32;;;;;;;3.30;1.23;;;17.10;92.40;;;;;;5079451;28;20442;-66
2022/10/08 12:14:10;;;;;;;9.07;1.20;;;17.10;92.70;;;;;;5091955;28;20960;-66
2022/10/08 12:16:47;;;;;;;11.33;1.93;;;17.10;91.80;;;;;;5092841;28;20414;-66
2022/10/08 12:19:31;;;;;;;2.43;1.10;;;17.20;92.70;;;;;;5092281;28;20414;-66
2022/10/08 12:21:58;;;;;;;3.30;1.43;;;17.30;92.20;;;;;;5091720;28;20462;-67
2022/10/08 12:24:50;;;;;;;3.73;1.27;;;17.50;91.60;;;;;;5089233;28;20407;-66
2022/10/08 12:27:15;;;;;;;7.80;1.57;;;17.50;91.80;;;;;;5085145;28;20904;-66
2022/10/08 12:30:06;;;;;;;3.93;1.00;;;17.40;92.00;;;;;;5092013;28;20492;-66
2022/10/08 12:32:40;;;;;;;2.43;0.90;;;17.20;92.00;;;;;;5078949;28;20279;-67
2022/10/08 12:35:24;;;;;;;2.47;1.33;;;17.20;92.70;;;;;;5092090;28;20421;-67
2022/10/08 12:37:57;;;;;;;5.30;1.00;;;17.30;91.90;;;;;;5081623;28;20931;-66
2022/10/08 12:40:43;;;;;;;4.13;1.00;;;17.30;91.40;;;;;;5089867;28;20418;-66
2022/10/08 12:43:47;;;;;;;6.10;1.23;;;17.20;91.50;;;;;;5076918;28;20454;-66
2022/10/08 12:46:27;;;;;;;28.33;1.60;;;17.20;92.70;;;;;;4973875;28;20777;-66
2022/10/08 12:49:00;;;;;;;9.23;1.67;;;17.20;90.90;;;;;;5060681;28;20423;-66
2022/10/08 12:51:54;;;;;;;4.20;0.90;;;17.10;90.70;;;;;;5073969;28;20425;-66
2022/10/08 12:54:25;;;;;;;4.33;1.20;;;17.00;90.10;;;;;;5084330;28;20464;-66
2022/10/08 12:56:51;;;;;;;4.07;1.40;;;17.10;91.30;;;;;;5092291;28;20422;-66
2022/10/08 12:59:21;;;;;;;5.10;1.57;;;17.30;92.30;;;;;;5091442;28;20914;-65
2022/10/08 13:01:48;;;;;;;5.00;1.83;;;17.50;92.70;;;;;;5071317;28;20470;-65